Time;durP1;ratioP1;P1;durP2;ratioP2;P2;SDS_P1;SDS_P2;PMS_P1;PMS_P2;Temp;Humidity;BMP_temperature;BMP_pressure;BME280_temperature;BME280_humidity;BME280_pressure;Samples;Min_cycle;Max_cycle;Signal;HPM_P1;HPM_P2
2023/07/12 00:02:07;;;;;;;5.68;2.67;;;;;;;;;;5027996;28;20024;-68
2023/07/12 00:04:52;;;;;;;5.43;3.00;;;;;;;;;;5025499;28;20608;-67
2023/07/12 00:07:37;;;;;;;3.80;2.58;;;;;;;;;;5026277;28;20120;-66
2023/07/12 00:10:24;;;;;;;7.43;3.13;;;;;;;;;;5026529;28;20347;-65
2023/07/12 00:13:09;;;;;;;5.00;2.50;;;;;;;;;;5031965;28;20018;-63
2023/07/12 00:15:56;;;;;;;6.28;2.95;;;;;;;;;;5026700;28;20120;-67
2023/07/12 00:18:41;;;;;;;5.38;2.17;;;;;;;;;;5020345;28;20033;-67
2023/07/12 00:21:27;;;;;;;4.47;2.35;;;;;;;;;;5019641;28;20034;-68
2023/07/12 00:24:13;;;;;;;5.47;2.53;;;;;;;;;;5027025;28;20502;-68
2023/07/12 00:26:58;;;;;;;4.47;2.92;;;;;;;;;;5027778;28;20125;-70
2023/07/12 00:29:43;;;;;;;4.18;2.45;;;;;;;;;;5023644;28;20160;-69
2023/07/12 00:32:28;;;;;;;7.20;2.53;;;;;;;;;;5024829;28;20140;-63
2023/07/12 00:35:15;;;;;;;8.27;2.38;;;;;;;;;;5029076;28;20044;-67
2023/07/12 00:38:01;;;;;;;9.05;2.85;;;;;;;;;;5017618;28;20041;-67
2023/07/12 00:40:59;;;;;;;7.10;2.45;;;;;;;;;;5026525;28;20481;-68
2023/07/12 00:43:53;;;;;;;2.67;1.83;;;;;;;;;;5028392;28;20084;-68
2023/07/12 00:46:40;;;;;;;5.85;2.40;;;;;;;;;;5021530;28;20061;-67
2023/07/12 00:49:26;;;;;;;4.22;2.10;;;;;;;;;;5026274;28;20544;-68
2023/07/12 00:52:12;;;;;;;3.03;1.88;;;;;;;;;;5029268;28;20035;-67
2023/07/12 00:55:03;;;;;;;2.17;1.58;;;;;;;;;;5025750;28;20041;-68
2023/07/12 00:57:48;;;;;;;3.97;2.15;;;;;;;;;;5026926;28;20029;-70
2023/07/12 01:00:33;;;;;;;5.88;2.42;;;;;;;;;;5026207;28;20456;-68
2023/07/12 01:03:21;;;;;;;5.68;2.30;;;;;;;;;;5026847;28;20033;-68
2023/07/12 01:06:09;;;;;;;3.72;1.85;;;;;;;;;;5021159;28;20053;-68
2023/07/12 01:08:54;;;;;;;3.40;2.13;;;;;;;;;;5025351;28;20084;-63
2023/07/12 01:11:40;;;;;;;5.20;2.15;;;;;;;;;;5026934;28;20029;-65
2023/07/12 01:14:25;;;;;;;6.40;2.33;;;;;;;;;;5022807;28;20097;-67
2023/07/12 01:17:10;;;;;;;5.28;2.03;;;;;;;;;;5025716;28;20022;-66
2023/07/12 01:19:56;;;;;;;5.40;1.80;;;;;;;;;;5024173;28;20120;-66
2023/07/12 01:22:42;;;;;;;3.20;2.08;;;;;;;;;;5023253;28;20492;-64
2023/07/12 01:25:44;;;;;;;2.75;1.70;;;;;;;;;;5025389;28;20056;-65
2023/07/12 01:28:29;;;;;;;3.63;1.85;;;;;;;;;;5029813;28;20060;-64
2023/07/12 01:31:14;;;;;;;5.88;1.83;;;;;;;;;;5026203;28;20103;-67
2023/07/12 01:34:00;;;;;;;4.43;2.15;;;;;;;;;;5024483;28;20037;-64
2023/07/12 01:36:45;;;;;;;4.50;1.83;;;;;;;;;;5025961;28;20524;-66
2023/07/12 01:39:31;;;;;;;5.10;2.10;;;;;;;;;;5026179;28;20091;-64
2023/07/12 01:42:17;;;;;;;7.35;2.97;;;;;;;;;;5025638;28;20026;-63
2023/07/12 01:45:02;;;;;;;2.10;1.40;;;;;;;;;;5022873;28;20029;-64
2023/07/12 01:47:48;;;;;;;4.38;1.67;;;;;;;;;;5033741;28;20028;-67
2023/07/12 01:50:33;;;;;;;9.57;2.78;;;;;;;;;;5027049;28;20469;-61
2023/07/12 01:53:18;;;;;;;5.70;2.55;;;;;;;;;;5023157;28;20048;-62
2023/07/12 01:56:04;;;;;;;5.72;2.30;;;;;;;;;;5024994;28;20030;-63
2023/07/12 01:58:49;;;;;;;3.55;2.25;;;;;;;;;;5023784;28;20116;-61
2023/07/12 02:01:34;;;;;;;3.92;2.22;;;;;;;;;;5020942;28;20618;-62
2023/07/12 02:04:19;;;;;;;3.30;2.15;;;;;;;;;;5025270;28;20033;-64
2023/07/12 02:07:05;;;;;;;3.92;2.33;;;;;;;;;;5029631;28;20021;-64
2023/07/12 02:10:10;;;;;;;4.80;2.10;;;;;;;;;;5028513;28;20036;-63
2023/07/12 02:12:55;;;;;;;4.97;1.73;;;;;;;;;;5029985;28;20489;-64
2023/07/12 02:15:40;;;;;;;4.07;2.20;;;;;;;;;;5021601;28;20029;-63
2023/07/12 02:18:26;;;;;;;6.90;2.50;;;;;;;;;;5017630;28;20038;-62
2023/07/12 02:21:11;;;;;;;6.05;2.35;;;;;;;;;;5022715;28;20040;-63
2023/07/12 02:23:56;;;;;;;4.55;2.10;;;;;;;;;;5020552;28;20030;-70
2023/07/12 02:26:42;;;;;;;4.38;2.35;;;;;;;;;;5032097;28;20108;-65
2023/07/12 02:29:27;;;;;;;5.70;2.42;;;;;;;;;;5028035;28;20037;-66
2023/07/12 02:32:12;;;;;;;6.00;2.00;;;;;;;;;;5029291;28;20021;-70
2023/07/12 02:34:57;;;;;;;8.23;2.22;;;;;;;;;;5028818;28;20037;-68
2023/07/12 02:37:42;;;;;;;5.07;2.08;;;;;;;;;;5029038;28;20048;-67
2023/07/12 02:40:28;;;;;;;4.45;2.35;;;;;;;;;;5028291;28;20037;-65
2023/07/12 02:43:13;;;;;;;6.43;2.30;;;;;;;;;;5031134;28;20365;-66
2023/07/12 02:45:58;;;;;;;6.30;2.80;;;;;;;;;;5028468;28;20103;-65
2023/07/12 02:48:44;;;;;;;6.32;2.42;;;;;;;;;;5028707;28;20025;-65
2023/07/12 02:51:29;;;;;;;4.70;2.17;;;;;;;;;;5034467;28;20033;-66
2023/07/12 02:54:14;;;;;;;6.97;1.95;;;;;;;;;;5029090;28;20039;-65
2023/07/12 02:57:00;;;;;;;5.43;2.20;;;;;;;;;;5028003;28;20060;-64
2023/07/12 02:59:45;;;;;;;3.45;2.28;;;;;;;;;;5027449;28;20033;-65
2023/07/12 03:02:30;;;;;;;7.50;2.40;;;;;;;;;;5026832;28;20033;-62
2023/07/12 03:05:16;;;;;;;6.35;2.40;;;;;;;;;;5009477;28;20554;-64
2023/07/12 03:08:01;;;;;;;5.35;2.50;;;;;;;;;;5028930;28;20033;-66
2023/07/12 03:10:46;;;;;;;3.55;1.92;;;;;;;;;;5028641;28;20041;-65
2023/07/12 03:13:31;;;;;;;8.23;2.63;;;;;;;;;;5026462;28;20032;-65
2023/07/12 03:16:17;;;;;;;8.57;2.78;;;;;;;;;;5030443;28;20115;-63
2023/07/12 03:19:02;;;;;;;4.72;2.30;;;;;;;;;;5028296;28;20040;-63
2023/07/12 03:21:47;;;;;;;9.60;3.13;;;;;;;;;;5028715;28;20017;-64
2023/07/12 03:24:33;;;;;;;3.50;2.67;;;;;;;;;;5026708;28;20372;-63
2023/07/12 03:27:18;;;;;;;11.15;2.55;;;;;;;;;;5027830;28;20487;-64
2023/07/12 03:30:04;;;;;;;11.05;3.58;;;;;;;;;;5027715;28;20035;-63
2023/07/12 03:32:50;;;;;;;4.88;2.95;;;;;;;;;;5023883;28;20122;-63
2023/07/12 03:35:35;;;;;;;8.95;2.85;;;;;;;;;;5026585;28;21623;-67
2023/07/12 03:38:24;;;;;;;7.53;2.65;;;;;;;;;;5013924;28;20065;-61
2023/07/12 03:41:10;;;;;;;;;;;;;;;;;;5015440;28;20033;-66
2023/07/12 03:43:55;;;;;;;3.50;2.28;;;;;;;;;;5026614;28;20367;-65
2023/07/12 03:46:40;;;;;;;7.70;2.50;;;;;;;;;;5018381;28;20101;-64
2023/07/12 03:49:25;;;;;;;6.53;2.40;;;;;;;;;;5027164;28;20022;-65
2023/07/12 03:52:11;;;;;;;5.97;2.53;;;;;;;;;;5030937;28;20480;-64
2023/07/12 03:54:56;;;;;;;4.95;2.15;;;;;;;;;;5031014;28;20068;-64
2023/07/12 03:57:41;;;;;;;5.40;2.08;;;;;;;;;;5021562;28;20025;-68
2023/07/12 04:00:26;;;;;;;5.00;2.47;;;;;;;;;;5027417;28;20041;-68
2023/07/12 04:03:12;;;;;;;5.93;2.35;;;;;;;;;;5027585;28;20358;-67
2023/07/12 04:05:57;;;;;;;5.75;2.70;;;;;;;;;;5013438;28;20138;-68
2023/07/12 04:08:42;;;;;;;7.43;2.72;;;;;;;;;;5027437;28;20469;-67
2023/07/12 04:11:29;;;;;;;5.38;2.53;;;;;;;;;;5019937;28;20079;-67
2023/07/12 04:14:14;;;;;;;7.72;2.50;;;;;;;;;;5010098;28;20574;-67
2023/07/12 04:17:00;;;;;;;6.45;2.58;;;;;;;;;;5027320;28;20045;-67
2023/07/12 04:19:45;;;;;;;7.75;2.70;;;;;;;;;;5026944;28;20032;-67
2023/07/12 04:22:30;;;;;;;8.07;3.10;;;;;;;;;;4998341;28;20473;-68
2023/07/12 04:25:15;;;;;;;8.75;2.70;;;;;;;;;;5030261;28;20025;-67
2023/07/12 04:28:01;;;;;;;9.45;3.65;;;;;;;;;;5035088;28;20162;-66
2023/07/12 04:30:46;;;;;;;6.05;2.55;;;;;;;;;;5026280;28;20064;-67
2023/07/12 04:33:31;;;;;;;5.93;2.53;;;;;;;;;;5027442;28;20108;-67
2023/07/12 04:36:17;;;;;;;6.70;2.60;;;;;;;;;;5025940;28;20072;-61
2023/07/12 04:39:02;;;;;;;10.45;2.92;;;;;;;;;;5023907;28;20041;-63
2023/07/12 04:41:48;;;;;;;12.32;4.28;;;;;;;;;;5020949;28;20021;-65
2023/07/12 04:44:33;;;;;;;5.47;2.97;;;;;;;;;;5027426;28;20125;-63
2023/07/12 04:47:18;;;;;;;8.00;3.40;;;;;;;;;;5009998;28;20033;-63
2023/07/12 04:50:04;;;;;;;14.90;3.75;;;;;;;;;;5026811;28;20033;-68
2023/07/12 04:52:49;;;;;;;7.55;2.78;;;;;;;;;;5026027;28;20032;-64
2023/07/12 04:55:34;;;;;;;10.45;3.92;;;;;;;;;;5011273;28;20535;-63
2023/07/12 04:58:19;;;;;;;11.52;3.20;;;;;;;;;;5013846;28;20112;-64
2023/07/12 05:01:05;;;;;;;9.82;3.20;;;;;;;;;;5031390;28;20032;-63
2023/07/12 05:03:50;;;;;;;9.02;2.53;;;;;;;;;;5026635;28;20025;-63
2023/07/12 05:06:35;;;;;;;10.68;2.90;;;;;;;;;;5020848;28;20095;-64
2023/07/12 05:09:20;;;;;;;9.00;3.25;;;;;;;;;;5022129;28;20112;-66
2023/07/12 05:12:06;;;;;;;8.70;3.65;;;;;;;;;;5021196;28;20043;-66
2023/07/12 05:14:51;;;;;;;10.25;3.33;;;;;;;;;;5021342;28;20041;-70
2023/07/12 05:17:37;;;;;;;8.75;3.53;;;;;;;;;;5023633;28;20438;-66
2023/07/12 05:20:23;;;;;;;6.80;3.50;;;;;;;;;;5007644;28;21284;-65
2023/07/12 05:23:08;;;;;;;5.68;2.72;;;;;;;;;;5004791;28;20538;-66
2023/07/12 05:25:54;;;;;;;9.57;3.20;;;;;;;;;;5007270;28;20432;-66
2023/07/12 05:28:39;;;;;;;6.43;3.67;;;;;;;;;;5026237;28;20503;-69
2023/07/12 05:31:24;;;;;;;7.88;3.67;;;;;;;;;;5025388;28;20068;-65
2023/07/12 05:34:10;;;;;;;8.25;3.40;;;;;;;;;;5022005;28;20088;-62
2023/07/12 05:36:55;;;;;;;8.27;3.53;;;;;;;;;;5020689;28;20381;-65
2023/07/12 05:39:40;;;;;;;6.97;3.83;;;;;;;;;;5024231;28;20018;-65
2023/07/12 05:42:25;;;;;;;7.60;3.30;;;;;;;;;;5029988;28;20029;-68
2023/07/12 05:45:13;;;;;;;6.50;3.25;;;;;;;;;;5025867;28;20049;-65
2023/07/12 05:47:59;;;;;;;12.75;4.13;;;;;;;;;;5025560;28;20033;-64
2023/07/12 05:50:49;;;;;;;10.43;3.92;;;;;;;;;;5028014;28;20021;-60
2023/07/12 05:53:34;;;;;;;10.23;3.70;;;;;;;;;;5029085;28;20025;-62
2023/07/12 05:56:19;;;;;;;10.15;3.15;;;;;;;;;;5029462;28;20037;-62
2023/07/12 05:59:05;;;;;;;12.13;4.90;;;;;;;;;;5030414;28;20104;-62
2023/07/12 06:01:50;;;;;;;10.60;3.35;;;;;;;;;;5028827;28;20057;-63
2023/07/12 06:04:35;;;;;;;7.70;4.03;;;;;;;;;;5037594;28;20033;-67
2023/07/12 06:07:21;;;;;;;10.88;3.70;;;;;;;;;;5029841;28;20040;-63
2023/07/12 06:10:06;;;;;;;7.15;3.67;;;;;;;;;;5020394;28;20064;-62
2023/07/12 06:12:52;;;;;;;7.45;3.50;;;;;;;;;;5028748;28;20384;-62
2023/07/12 06:15:37;;;;;;;11.15;3.65;;;;;;;;;;5017134;28;20036;-63
2023/07/12 06:18:23;;;;;;;7.20;4.07;;;;;;;;;;5025328;28;20018;-65
2023/07/12 06:21:09;;;;;;;7.68;3.58;;;;;;;;;;5031112;28;20024;-68
2023/07/12 06:23:57;;;;;;;10.63;3.80;;;;;;;;;;5027664;28;20029;-67
2023/07/12 06:26:42;;;;;;;5.55;3.60;;;;;;;;;;5016854;28;20168;-67
2023/07/12 06:29:28;;;;;;;6.85;3.97;;;;;;;;;;5029436;28;20029;-67
2023/07/12 06:32:14;;;;;;;10.27;4.47;;;;;;;;;;5026378;28;20507;-66
2023/07/12 06:34:59;;;;;;;8.50;4.05;;;;;;;;;;5030573;28;20061;-67
2023/07/12 06:37:44;;;;;;;6.95;4.38;;;;;;;;;;5029076;28;20095;-67
2023/07/12 06:40:30;;;;;;;7.07;3.95;;;;;;;;;;5022730;28;20463;-62
2023/07/12 06:43:15;;;;;;;10.95;4.18;;;;;;;;;;5022965;28;20380;-68
2023/07/12 06:46:00;;;;;;;6.93;3.30;;;;;;;;;;5026717;28;20033;-67
2023/07/12 06:48:45;;;;;;;8.85;4.25;;;;;;;;;;5024194;28;20164;-65
2023/07/12 06:51:31;;;;;;;11.32;4.75;;;;;;;;;;5028489;28;20091;-63
2023/07/12 06:54:16;;;;;;;6.53;3.42;;;;;;;;;;5023068;28;20530;-65
2023/07/12 06:57:02;;;;;;;7.57;3.20;;;;;;;;;;5027754;28;20032;-64
2023/07/12 06:59:47;;;;;;;8.57;3.72;;;;;;;;;;5022534;28;20025;-67
2023/07/12 07:02:32;;;;;;;9.20;3.63;;;;;;;;;;5025420;28;20123;-70
2023/07/12 07:05:18;;;;;;;6.63;3.72;;;;;;;;;;5025357;28;20018;-70
2023/07/12 07:08:03;;;;;;;7.30;4.40;;;;;;;;;;5030318;28;20376;-71
2023/07/12 07:10:50;;;;;;;7.68;3.35;;;;;;;;;;5036735;28;20140;-72
2023/07/12 07:13:35;;;;;;;8.35;4.22;;;;;;;;;;5024586;28;20026;-70
2023/07/12 07:16:21;;;;;;;13.60;3.53;;;;;;;;;;5023558;28;20495;-61
2023/07/12 07:19:06;;;;;;;8.60;3.83;;;;;;;;;;5023452;28;20512;-62
2023/07/12 07:21:51;;;;;;;9.50;4.15;;;;;;;;;;5016996;28;20057;-66
2023/07/12 07:24:36;;;;;;;6.53;3.33;;;;;;;;;;5021154;28;20036;-65
2023/07/12 07:27:22;;;;;;;8.57;3.63;;;;;;;;;;5010587;28;20032;-66
2023/07/12 07:30:08;;;;;;;8.13;3.55;;;;;;;;;;5023833;28;20040;-66
2023/07/12 07:32:54;;;;;;;7.25;3.95;;;;;;;;;;5023970;28;20044;-66
2023/07/12 07:35:39;;;;;;;5.25;3.47;;;;;;;;;;5022197;28;20071;-64
2023/07/12 07:38:27;;;;;;;8.48;3.00;;;;;;;;;;5027296;28;20077;-63
2023/07/12 07:41:14;;;;;;;9.63;3.08;;;;;;;;;;5023189;28;20124;-63
2023/07/12 07:44:00;;;;;;;7.50;3.88;;;;;;;;;;5023041;28;20423;-63
2023/07/12 07:46:45;;;;;;;6.03;3.15;;;;;;;;;;5025217;28;20049;-64
2023/07/12 07:49:30;;;;;;;6.10;2.95;;;;;;;;;;5026293;28;20037;-64
2023/07/12 07:52:15;;;;;;;7.82;3.63;;;;;;;;;;5025453;28;20021;-68
2023/07/12 07:55:01;;;;;;;4.85;2.97;;;;;;;;;;5024531;28;20111;-63
2023/07/12 07:57:46;;;;;;;6.72;3.33;;;;;;;;;;5020984;28;20026;-61
2023/07/12 08:00:31;;;;;;;6.80;2.72;;;;;;;;;;5026292;28;20029;-63
2023/07/12 08:03:17;;;;;;;5.88;3.45;;;;;;;;;;5025102;28;20435;-62
2023/07/12 08:06:03;;;;;;;9.23;3.40;;;;;;;;;;5025650;28;20063;-64
2023/07/12 08:08:49;;;;;;;7.38;3.00;;;;;;;;;;5021759;28;20519;-66
2023/07/12 08:11:34;;;;;;;6.50;3.25;;;;;;;;;;5030240;28;20021;-60
2023/07/12 08:14:20;;;;;;;6.40;3.28;;;;;;;;;;5024781;28;20034;-64
2023/07/12 08:17:06;;;;;;;5.45;3.45;;;;;;;;;;5023906;28;20025;-62
2023/07/12 08:19:52;;;;;;;4.43;3.20;;;;;;;;;;5020687;28;20031;-61
2023/07/12 08:22:37;;;;;;;6.13;3.55;;;;;;;;;;5019815;28;20384;-61
2023/07/12 08:25:23;;;;;;;7.70;3.55;;;;;;;;;;5024518;28;20059;-60
2023/07/12 08:28:08;;;;;;;6.55;3.42;;;;;;;;;;5021664;28;20423;-60
2023/07/12 08:30:53;;;;;;;4.43;3.17;;;;;;;;;;5022612;28;20034;-71
2023/07/12 08:33:38;;;;;;;5.05;2.80;;;;;;;;;;5007947;28;20025;-66
2023/07/12 08:36:23;;;;;;;8.90;3.83;;;;;;;;;;5025381;28;20099;-65
2023/07/12 08:39:09;;;;;;;6.55;2.92;;;;;;;;;;5023966;28;20500;-67
2023/07/12 08:41:54;;;;;;;4.32;2.75;;;;;;;;;;5022507;28;20071;-66
2023/07/12 08:44:40;;;;;;;5.72;3.05;;;;;;;;;;5031360;28;20030;-67
2023/07/12 08:47:31;;;;;;;6.72;2.63;;;;;;;;;;5023075;28;20457;-66
2023/07/12 08:50:17;;;;;;;5.47;2.67;;;;;;;;;;5024375;28;20763;-67
2023/07/12 08:53:04;;;;;;;5.32;2.70;;;;;;;;;;5019696;28;20022;-72
2023/07/12 08:55:50;;;;;;;4.63;2.90;;;;;;;;;;5024923;28;20087;-73
2023/07/12 08:58:37;;;;;;;5.32;3.50;;;;;;;;;;5026045;28;20033;-73
2023/07/12 09:01:41;;;;;;;8.48;3.63;;;;;;;;;;5021459;28;20021;-74
2023/07/12 09:04:28;;;;;;;4.60;2.60;;;;;;;;;;5012911;28;20041;-71
2023/07/12 09:07:20;;;;;;;6.38;3.33;;;;;;;;;;5029918;28;20543;-72
2023/07/12 09:10:05;;;;;;;5.70;2.65;;;;;;;;;;5023714;28;20108;-62
2023/07/12 09:12:51;;;;;;;7.10;3.33;;;;;;;;;;5027688;28;20061;-62
2023/07/12 09:15:44;;;;;;;4.53;2.88;;;;;;;;;;5035824;28;20048;-61
2023/07/12 09:18:34;;;;;;;4.13;2.47;;;;;;;;;;5027901;28;20037;-61
2023/07/12 09:21:21;;;;;;;5.70;2.47;;;;;;;;;;5023029;28;20341;-62
2023/07/12 09:24:11;;;;;;;5.82;2.90;;;;;;;;;;5028974;28;20053;-62
2023/07/12 09:27:04;;;;;;;3.67;2.03;;;;;;;;;;5024334;28;20034;-63
2023/07/12 09:29:59;;;;;;;5.95;2.15;;;;;;;;;;5022596;28;20243;-63
2023/07/12 09:32:45;;;;;;;5.93;2.55;;;;;;;;;;5026536;28;20033;-62
2023/07/12 09:35:38;;;;;;;6.68;2.78;;;;;;;;;;5027628;28;20041;-61
2023/07/12 09:38:24;;;;;;;4.88;2.38;;;;;;;;;;5023980;28;20111;-63
2023/07/12 09:41:10;;;;;;;4.60;2.55;;;;;;;;;;5023286;28;20521;-62
2023/07/12 09:43:57;;;;;;;3.90;2.10;;;;;;;;;;5022123;28;20035;-69
2023/07/12 09:46:46;;;;;;;3.60;2.13;;;;;;;;;;5029312;28;20072;-72
2023/07/12 09:49:31;;;;;;;5.10;2.88;;;;;;;;;;5044244;28;20029;-74
2023/07/12 09:52:19;;;;;;;5.20;3.22;;;;;;;;;;5025487;28;20133;-74
2023/07/12 09:55:11;;;;;;;4.95;2.55;;;;;;;;;;5027989;28;20512;-74
2023/07/12 09:58:15;;;;;;;4.93;2.53;;;;;;;;;;5020213;28;20148;-73
2023/07/12 10:01:04;;;;;;;6.22;2.72;;;;;;;;;;5023482;28;20496;-73
2023/07/12 10:03:53;;;;;;;4.30;2.65;;;;;;;;;;5028259;28;20372;-69
2023/07/12 10:06:40;;;;;;;4.07;2.10;;;;;;;;;;5025283;28;20108;-70
2023/07/12 10:09:32;;;;;;;5.22;2.97;;;;;;;;;;5026446;28;20084;-71
2023/07/12 10:12:23;;;;;;;4.72;2.78;;;;;;;;;;5021829;28;20033;-69
2023/07/12 10:15:11;;;;;;;7.10;3.05;;;;;;;;;;5026955;28;20041;-68
2023/07/12 10:17:56;;;;;;;6.45;2.90;;;;;;;;;;5044797;28;20080;-69
2023/07/12 10:20:42;;;;;;;6.90;2.80;;;;;;;;;;5023604;28;20029;-69
2023/07/12 10:23:29;;;;;;;4.97;2.72;;;;;;;;;;5023114;28;20021;-63
2023/07/12 10:26:15;;;;;;;8.43;3.22;;;;;;;;;;5027227;28;20048;-67
2023/07/12 10:29:10;;;;;;;3.15;2.40;;;;;;;;;;5027264;28;20053;-67
2023/07/12 10:31:58;;;;;;;5.43;2.80;;;;;;;;;;5022319;28;20032;-64
2023/07/12 10:34:52;;;;;;;7.03;3.10;;;;;;;;;;5027379;28;20036;-66
2023/07/12 10:37:42;;;;;;;8.32;2.88;;;;;;;;;;5027968;28;20069;-68
2023/07/12 10:40:30;;;;;;;4.05;2.60;;;;;;;;;;5027165;28;20035;-70
2023/07/12 10:43:19;;;;;;;8.70;3.13;;;;;;;;;;5022604;28;20036;-66
2023/07/12 10:46:07;;;;;;;4.78;2.60;;;;;;;;;;5025929;28;20082;-63
2023/07/12 10:48:54;;;;;;;5.93;2.40;;;;;;;;;;5028310;28;20025;-66
2023/07/12 10:51:41;;;;;;;5.10;2.70;;;;;;;;;;5037179;28;20027;-64
2023/07/12 10:54:29;;;;;;;6.47;3.03;;;;;;;;;;5030124;28;20035;-67
2023/07/12 10:57:20;;;;;;;5.30;2.60;;;;;;;;;;5016804;28;20095;-63
2023/07/12 11:00:18;;;;;;;9.38;3.67;;;;;;;;;;5021494;28;20468;-71
2023/07/12 11:03:15;;;;;;;6.25;3.03;;;;;;;;;;5021744;28;20034;-67
2023/07/12 11:06:06;;;;;;;13.32;3.63;;;;;;;;;;5025203;28;20052;-68
2023/07/12 11:08:54;;;;;;;6.22;3.58;;;;;;;;;;5012713;28;20350;-67
2023/07/12 11:11:42;;;;;;;4.80;3.10;;;;;;;;;;5020849;28;20022;-70
2023/07/12 11:14:36;;;;;;;7.50;3.92;;;;;;;;;;5023711;28;20037;-68
2023/07/12 11:17:25;;;;;;;7.43;3.40;;;;;;;;;;5026957;28;20017;-72
2023/07/12 11:20:18;;;;;;;6.20;3.50;;;;;;;;;;5026552;28;20025;-64
2023/07/12 11:23:07;;;;;;;9.95;4.53;;;;;;;;;;5024491;28;20042;-62
2023/07/12 11:25:57;;;;;;;13.98;5.22;;;;;;;;;;5025822;28;20507;-64
2023/07/12 11:28:43;;;;;;;11.43;4.80;;;;;;;;;;5023573;28;20473;-61
2023/07/12 11:31:31;;;;;;;6.20;3.40;;;;;;;;;;5026606;28;20112;-64
2023/07/12 11:34:18;;;;;;;11.80;5.13;;;;;;;;;;5025554;28;20373;-72
2023/07/12 11:37:04;;;;;;;11.27;5.15;;;;;;;;;;5026846;28;20045;-68
2023/07/12 11:39:50;;;;;;;8.73;3.83;;;;;;;;;;5022720;28;20036;-75
2023/07/12 11:42:36;;;;;;;8.23;4.05;;;;;;;;;;5026547;28;20116;-75
2023/07/12 11:45:22;;;;;;;6.93;4.00;;;;;;;;;;5025504;28;20753;-74
2023/07/12 11:48:07;;;;;;;6.03;3.42;;;;;;;;;;5012713;28;20057;-74
2023/07/12 11:50:53;;;;;;;7.15;3.80;;;;;;;;;;5028188;28;20022;-73
2023/07/12 11:53:39;;;;;;;5.15;3.20;;;;;;;;;;5027470;28;20033;-69
2023/07/12 11:56:24;;;;;;;6.57;3.50;;;;;;;;;;5033931;28;20048;-62
2023/07/12 11:59:17;;;;;;;8.73;3.65;;;;;;;;;;5023641;28;20044;-61
2023/07/12 12:02:05;;;;;;;5.40;3.50;;;;;;;;;;5025057;28;20087;-63
2023/07/12 12:04:55;;;;;;;5.43;3.28;;;;;;;;;;5011044;28;20439;-66
2023/07/12 12:07:41;;;;;;;6.28;2.85;;;;;;;;;;5027322;28;20735;-64
2023/07/12 12:10:27;;;;;;;6.85;3.40;;;;;;;;;;5027056;28;20017;-64
2023/07/12 12:13:15;;;;;;;7.70;3.00;;;;;;;;;;5025598;28;20128;-63
2023/07/12 12:16:06;;;;;;;6.63;2.90;;;;;;;;;;5026504;28;20041;-60
2023/07/12 12:18:53;;;;;;;8.73;3.75;;;;;;;;;;5026259;28;20036;-61
2023/07/12 12:21:51;;;;;;;8.18;4.28;;;;;;;;;;5026737;28;20561;-62
2023/07/12 12:24:46;;;;;;;5.93;3.28;;;;;;;;;;5025681;28;20040;-64
2023/07/12 12:27:36;;;;;;;5.45;3.22;;;;;;;;;;5032742;28;20029;-64
2023/07/12 12:30:23;;;;;;;8.75;4.50;;;;;;;;;;5023453;28;20061;-66
2023/07/12 12:33:22;;;;;;;6.57;3.97;;;;;;;;;;5013144;28;20025;-67
2023/07/12 12:36:13;;;;;;;6.22;3.00;;;;;;;;;;5014361;28;20068;-68
2023/07/12 12:39:08;;;;;;;4.90;3.10;;;;;;;;;;5026846;28;20479;-67
2023/07/12 12:41:54;;;;;;;5.72;3.40;;;;;;;;;;5026484;28;20052;-66
2023/07/12 12:44:39;;;;;;;7.88;4.13;;;;;;;;;;5024340;28;20477;-66
2023/07/12 12:47:27;;;;;;;8.15;3.30;;;;;;;;;;5027476;28;20022;-65
2023/07/12 12:50:19;;;;;;;6.03;3.13;;;;;;;;;;5027196;28;20076;-65
2023/07/12 12:53:05;;;;;;;5.45;3.00;;;;;;;;;;5027114;28;20385;-74
2023/07/12 12:55:50;;;;;;;5.18;3.30;;;;;;;;;;5027620;28;20029;-75
2023/07/12 12:58:35;;;;;;;6.38;3.05;;;;;;;;;;5029639;28;20311;-74
2023/07/12 13:01:21;;;;;;;6.55;3.03;;;;;;;;;;5032155;28;20108;-74
2023/07/12 13:04:07;;;;;;;8.23;2.80;;;;;;;;;;5027223;28;20061;-74
2023/07/12 13:06:52;;;;;;;4.20;3.00;;;;;;;;;;5011577;28;20472;-64
2023/07/12 13:09:37;;;;;;;5.63;3.20;;;;;;;;;;5024155;28;20419;-68
2023/07/12 13:12:23;;;;;;;4.88;3.30;;;;;;;;;;5027100;28;20084;-67
2023/07/12 13:15:27;;;;;;;5.60;2.70;;;;;;;;;;5025495;28;20037;-67
2023/07/12 13:18:13;;;;;;;4.53;3.00;;;;;;;;;;5026792;28;20025;-67
2023/07/12 13:20:58;;;;;;;5.05;2.80;;;;;;;;;;5015906;28;20579;-68
2023/07/12 13:23:44;;;;;;;6.68;3.10;;;;;;;;;;5021465;28;20021;-67
2023/07/12 13:26:30;;;;;;;6.82;3.53;;;;;;;;;;5026229;28;20025;-75
2023/07/12 13:29:16;;;;;;;4.65;2.90;;;;;;;;;;5017506;28;20388;-65
2023/07/12 13:32:02;;;;;;;8.02;3.38;;;;;;;;;;5034972;28;20056;-65
2023/07/12 13:34:48;;;;;;;6.93;3.10;;;;;;;;;;5024982;28;20069;-67
2023/07/12 13:37:36;;;;;;;6.32;2.70;;;;;;;;;;5025791;28;20405;-67
2023/07/12 13:40:21;;;;;;;10.07;3.70;;;;;;;;;;5007057;28;20034;-64
2023/07/12 13:43:11;;;;;;;9.50;4.00;;;;;;;;;;5015570;28;20128;-64
2023/07/12 13:45:57;;;;;;;6.90;3.33;;;;;;;;;;5026775;28;20025;-72
2023/07/12 13:48:42;;;;;;;7.15;3.50;;;;;;;;;;5025764;28;20493;-72
2023/07/12 13:51:28;;;;;;;7.70;3.17;;;;;;;;;;5018060;28;20441;-70
2023/07/12 13:54:13;;;;;;;12.18;3.17;;;;;;;;;;5029866;28;20026;-70
2023/07/12 13:56:58;;;;;;;7.32;3.42;;;;;;;;;;5029153;28;20323;-71
2023/07/12 13:59:46;;;;;;;10.40;3.30;;;;;;;;;;5029915;28;20036;-73
2023/07/12 14:02:33;;;;;;;7.28;3.65;;;;;;;;;;5031007;28;20096;-68
2023/07/12 14:05:19;;;;;;;7.18;3.50;;;;;;;;;;5035097;28;20109;-61
2023/07/12 14:08:04;;;;;;;7.32;3.20;;;;;;;;;;5030312;28;20034;-61
2023/07/12 14:10:50;;;;;;;5.60;3.05;;;;;;;;;;5029592;28;20365;-63
2023/07/12 14:13:35;;;;;;;10.68;3.35;;;;;;;;;;5027844;28;20037;-64
2023/07/12 14:16:21;;;;;;;5.60;2.58;;;;;;;;;;5030545;28;20112;-62
2023/07/12 14:19:06;;;;;;;6.15;3.08;;;;;;;;;;5030278;28;20025;-62
2023/07/12 14:21:51;;;;;;;5.15;3.22;;;;;;;;;;5029580;28;20076;-65
2023/07/12 14:24:36;;;;;;;8.30;3.30;;;;;;;;;;5023353;28;20571;-64
2023/07/12 14:27:23;;;;;;;3.30;2.40;;;;;;;;;;5029348;28;20009;-62
2023/07/12 14:30:09;;;;;;;3.85;2.53;;;;;;;;;;5014326;28;20041;-62
2023/07/12 14:32:54;;;;;;;7.20;3.00;;;;;;;;;;5018686;28;20034;-63
2023/07/12 14:35:41;;;;;;;5.65;2.92;;;;;;;;;;5035459;28;20328;-65
2023/07/12 14:38:26;;;;;;;3.25;2.13;;;;;;;;;;5027846;28;20053;-66
2023/07/12 14:41:20;;;;;;;4.53;3.03;;;;;;;;;;5025461;28;20041;-75
2023/07/12 14:44:10;;;;;;;4.72;3.05;;;;;;;;;;5029042;28;20109;-73
2023/07/12 14:46:56;;;;;;;8.20;2.95;;;;;;;;;;5028339;28;20080;-73
2023/07/12 14:49:42;;;;;;;5.43;2.83;;;;;;;;;;5028669;28;20036;-73
2023/07/12 14:52:31;;;;;;;6.47;2.88;;;;;;;;;;5029060;28;20040;-73
2023/07/12 14:55:17;;;;;;;4.20;2.55;;;;;;;;;;5027191;28;20037;-73
2023/07/12 14:58:08;;;;;;;4.88;2.42;;;;;;;;;;5028813;28;20095;-68
2023/07/12 15:00:53;;;;;;;5.35;2.20;;;;;;;;;;5027348;28;20018;-67
2023/07/12 15:03:39;;;;;;;6.85;2.90;;;;;;;;;;5027816;28;20041;-68
2023/07/12 15:06:24;;;;;;;5.95;2.65;;;;;;;;;;5014932;28;20044;-67
2023/07/12 15:09:09;;;;;;;4.90;2.75;;;;;;;;;;5030181;28;20032;-69
2023/07/12 15:11:54;;;;;;;3.58;2.35;;;;;;;;;;5026593;28;20068;-68
2023/07/12 15:14:40;;;;;;;4.45;2.80;;;;;;;;;;5025625;28;20059;-73
2023/07/12 15:17:25;;;;;;;6.63;2.70;;;;;;;;;;5014736;28;20018;-66
2023/07/12 15:20:11;;;;;;;5.53;3.60;;;;;;;;;;5019857;28;20026;-62
2023/07/12 15:22:56;;;;;;;4.60;2.72;;;;;;;;;;5021685;28;20026;-62
2023/07/12 15:25:41;;;;;;;6.15;2.65;;;;;;;;;;5040338;28;20029;-61
2023/07/12 15:28:27;;;;;;;5.90;2.75;;;;;;;;;;5027867;28;20260;-61
2023/07/12 15:31:16;;;;;;;9.27;2.50;;;;;;;;;;5026781;28;20109;-60
2023/07/12 15:34:02;;;;;;;8.15;3.00;;;;;;;;;;5027651;28;20108;-73
2023/07/12 15:36:47;;;;;;;5.25;2.20;;;;;;;;;;5026594;28;20103;-62
2023/07/12 15:39:32;;;;;;;2.92;2.28;;;;;;;;;;5032736;28;20025;-61
2023/07/12 15:42:21;;;;;;;6.55;2.70;;;;;;;;;;5029434;28;20033;-61
2023/07/12 15:45:11;;;;;;;3.35;2.03;;;;;;;;;;5028310;28;20071;-61
2023/07/12 15:47:57;;;;;;;3.83;2.13;;;;;;;;;;5015160;28;20132;-61
2023/07/12 15:50:43;;;;;;;4.18;2.35;;;;;;;;;;5028331;28;20382;-60
2023/07/12 15:53:28;;;;;;;4.15;2.45;;;;;;;;;;5027915;28;20036;-67
2023/07/12 15:56:17;;;;;;;7.70;2.08;;;;;;;;;;5027230;28;20041;-68
2023/07/12 15:59:02;;;;;;;4.82;2.33;;;;;;;;;;5022534;28;20116;-65
2023/07/12 16:01:48;;;;;;;11.77;2.58;;;;;;;;;;5018751;28;20049;-68
2023/07/12 16:04:33;;;;;;;4.32;1.95;;;;;;;;;;5025719;28;20061;-68
2023/07/12 16:07:19;;;;;;;7.18;2.33;;;;;;;;;;5015648;28;20113;-68
2023/07/12 16:10:04;;;;;;;4.65;2.30;;;;;;;;;;5027478;28;20045;-67
2023/07/12 16:12:50;;;;;;;4.75;2.50;;;;;;;;;;5029813;28;20029;-66
2023/07/12 16:15:35;;;;;;;2.97;2.13;;;;;;;;;;5018047;28;20036;-64
2023/07/12 16:18:22;;;;;;;3.65;2.08;;;;;;;;;;5019269;28;20025;-64
2023/07/12 16:21:13;;;;;;;5.10;2.10;;;;;;;;;;5023505;28;20129;-64
2023/07/12 16:23:59;;;;;;;5.18;2.45;;;;;;;;;;5023747;28;20021;-64
2023/07/12 16:26:44;;;;;;;6.28;2.58;;;;;;;;;;5024876;28;20440;-64
2023/07/12 16:29:29;;;;;;;5.75;2.80;;;;;;;;;;5013481;28;20416;-72
2023/07/12 16:32:16;;;;;;;4.22;2.63;;;;;;;;;;5025277;28;20033;-63
2023/07/12 16:35:01;;;;;;;5.68;3.42;;;;;;;;;;5018874;28;20424;-62
2023/07/12 16:37:48;;;;;;;4.00;2.72;;;;;;;;;;5024012;28;20052;-65
2023/07/12 16:40:33;;;;;;;5.55;2.58;;;;;;;;;;5020740;28;21575;-64